createdAt,value
2023-05-12T00:00:52.547Z,13.50
2023-05-12T00:01:52.529Z,13.50
2023-05-12T00:02:52.650Z,13.50
2023-05-12T00:03:52.741Z,13.47
2023-05-12T00:04:52.610Z,13.47
2023-05-12T00:05:52.514Z,13.46
2023-05-12T00:06:52.465Z,13.47
2023-05-12T00:07:52.472Z,13.46
2023-05-12T00:08:52.453Z,13.47
2023-05-12T00:09:52.428Z,13.46
2023-05-12T00:10:52.420Z,13.46
2023-05-12T00:11:52.426Z,13.43
2023-05-12T00:12:52.402Z,13.43
2023-05-12T00:13:52.427Z,13.41
2023-05-12T00:14:52.368Z,13.38
2023-05-12T00:15:52.459Z,13.35
2023-05-12T00:16:52.672Z,13.32
2023-05-12T00:17:52.495Z,13.32
2023-05-12T00:18:52.373Z,13.32
2023-05-12T00:19:52.311Z,13.29
2023-05-12T00:20:52.296Z,13.27
2023-05-12T00:21:52.312Z,13.24
2023-05-12T00:22:52.259Z,13.22
2023-05-12T00:23:52.248Z,13.22
2023-05-12T00:24:52.223Z,13.22
2023-05-12T00:25:52.238Z,13.24
2023-05-12T00:26:52.234Z,13.21
2023-05-12T00:27:52.197Z,13.22
2023-05-12T00:28:52.215Z,13.22
2023-05-12T00:29:52.172Z,13.24
2023-05-12T00:30:52.168Z,13.22
2023-05-12T00:31:52.190Z,13.21
2023-05-12T00:32:52.146Z,13.17
2023-05-12T00:33:52.120Z,13.19
2023-05-12T00:34:52.101Z,13.17
2023-05-12T00:35:52.085Z,13.17
2023-05-12T00:36:52.107Z,13.17
2023-05-12T00:37:52.065Z,13.16
2023-05-12T00:38:52.059Z,13.16
2023-05-12T00:39:52.060Z,13.16
2023-05-12T00:40:52.026Z,13.16
2023-05-12T00:41:52.084Z,13.13
2023-05-12T00:42:51.992Z,13.13
2023-05-12T00:43:51.995Z,13.14
2023-05-12T00:44:51.968Z,13.14
2023-05-12T00:45:52.010Z,13.14
2023-05-12T00:46:51.964Z,13.13
2023-05-12T00:47:51.966Z,13.14
2023-05-12T00:48:51.933Z,13.13
2023-05-12T00:49:51.905Z,13.13
2023-05-12T00:50:51.909Z,13.13
2023-05-12T00:51:51.883Z,13.13
2023-05-12T00:52:51.871Z,13.12
2023-05-12T00:53:51.859Z,13.13
2023-05-12T00:54:51.839Z,13.10
2023-05-12T00:55:51.843Z,13.10
2023-05-12T00:56:51.862Z,13.07
2023-05-12T00:57:51.802Z,13.06
2023-05-12T00:58:51.793Z,13.06
2023-05-12T00:59:51.815Z,13.03
2023-05-12T01:00:51.818Z,13.03
2023-05-12T01:01:51.748Z,13.01
2023-05-12T01:02:51.812Z,13.03
2023-05-12T01:03:51.710Z,13.01
2023-05-12T01:04:51.719Z,13.03
2023-05-12T01:05:51.703Z,13.03
2023-05-12T01:06:51.681Z,13.03
2023-05-12T01:07:51.667Z,13.01
2023-05-12T01:08:51.649Z,13.01
2023-05-12T01:09:51.652Z,12.98
2023-05-12T01:10:51.632Z,12.98
2023-05-12T01:11:51.620Z,12.98
2023-05-12T01:12:51.593Z,12.96
2023-05-12T01:13:51.609Z,12.95
2023-05-12T01:14:51.591Z,12.95
2023-05-12T01:15:51.568Z,12.95
2023-05-12T01:16:51.596Z,12.95
2023-05-12T01:17:51.606Z,12.94
2023-05-12T01:18:51.705Z,12.92
2023-05-12T01:19:51.512Z,12.92
2023-05-12T01:20:51.492Z,12.91
2023-05-12T01:21:51.477Z,12.88
2023-05-12T01:22:51.459Z,12.88
2023-05-12T01:23:51.494Z,12.84
2023-05-12T01:24:51.466Z,12.84
2023-05-12T01:25:51.449Z,12.81
2023-05-12T01:26:51.410Z,12.84
2023-05-12T01:27:51.418Z,12.81
2023-05-12T01:28:51.431Z,12.84
2023-05-12T01:29:51.383Z,12.81
2023-05-12T01:30:51.394Z,12.81
2023-05-12T01:31:51.358Z,12.80
2023-05-12T01:32:51.448Z,12.79
2023-05-12T01:33:51.317Z,12.79
2023-05-12T01:34:51.302Z,12.79
2023-05-12T01:35:51.298Z,12.76
2023-05-12T01:36:51.276Z,12.76
2023-05-12T01:37:51.291Z,12.76
2023-05-12T01:38:51.250Z,12.74
2023-05-12T01:39:51.255Z,12.73
2023-05-12T01:40:51.226Z,12.73
2023-05-12T01:41:51.223Z,12.73
2023-05-12T01:42:51.212Z,12.70
2023-05-12T01:43:51.192Z,12.70
2023-05-12T01:44:51.184Z,12.67
2023-05-12T01:45:51.192Z,12.66
2023-05-12T01:46:51.254Z,12.67
2023-05-12T01:47:51.255Z,12.63
2023-05-12T01:48:51.111Z,12.63
2023-05-12T01:49:51.146Z,12.63
2023-05-12T01:50:51.086Z,12.62
2023-05-12T01:51:51.103Z,12.62
2023-05-12T01:52:51.095Z,12.61
2023-05-12T01:53:51.051Z,12.61
2023-05-12T01:54:51.061Z,12.59
2023-05-12T01:55:51.037Z,12.63
2023-05-12T01:56:51.017Z,12.67
2023-05-12T01:57:51.001Z,12.71
2023-05-12T01:58:51.020Z,12.77
2023-05-12T01:59:50.981Z,12.80
2023-05-12T02:00:51.044Z,12.81
2023-05-12T02:01:51.026Z,12.80
2023-05-12T02:02:51.042Z,12.80
2023-05-12T02:03:51.029Z,12.79
2023-05-12T02:04:50.918Z,12.77
2023-05-12T02:05:50.907Z,12.74
2023-05-12T02:06:50.919Z,12.73
2023-05-12T02:07:50.904Z,12.71
2023-05-12T02:08:50.858Z,12.70
2023-05-12T02:09:50.859Z,12.69
2023-05-12T02:10:50.836Z,12.66
2023-05-12T02:11:50.843Z,12.66
2023-05-12T02:12:50.853Z,12.62
2023-05-12T02:13:51.973Z,12.59
2023-05-12T02:14:50.795Z,12.58
2023-05-12T02:15:50.768Z,12.56
2023-05-12T02:16:50.969Z,12.55
2023-05-12T02:17:50.771Z,12.54
2023-05-12T02:18:50.760Z,12.49
2023-05-12T02:19:50.758Z,12.49
2023-05-12T02:20:50.711Z,12.48
2023-05-12T02:21:50.696Z,12.48
2023-05-12T02:22:50.690Z,12.46
2023-05-12T02:23:50.669Z,12.46
2023-05-12T02:24:50.682Z,12.44
2023-05-12T02:25:50.657Z,12.46
2023-05-12T02:26:50.619Z,12.44
2023-05-12T02:27:50.620Z,12.46
2023-05-12T02:28:50.617Z,12.44
2023-05-12T02:29:50.586Z,12.44
2023-05-12T02:30:50.567Z,12.46
2023-05-12T02:31:50.654Z,12.44
2023-05-12T02:32:50.576Z,12.41
2023-05-12T02:33:50.535Z,12.40
2023-05-12T02:34:50.509Z,12.40
2023-05-12T02:35:50.520Z,12.37
2023-05-12T02:36:50.474Z,12.36
2023-05-12T02:37:50.466Z,12.36
2023-05-12T02:38:50.565Z,12.36
2023-05-12T02:39:50.448Z,12.34
2023-05-12T02:40:50.436Z,12.34
2023-05-12T02:41:50.412Z,12.31
2023-05-12T02:42:50.414Z,12.30
2023-05-12T02:43:50.431Z,12.31
2023-05-12T02:44:50.398Z,12.33
2023-05-12T02:45:50.396Z,12.31
2023-05-12T02:46:50.358Z,12.33
2023-05-12T02:47:50.384Z,12.33
2023-05-12T02:48:50.323Z,12.33
2023-05-12T02:49:50.309Z,12.31
2023-05-12T02:50:50.316Z,12.30
2023-05-12T02:51:50.284Z,12.29
2023-05-12T02:52:50.280Z,12.29
2023-05-12T02:53:50.277Z,12.29
2023-05-12T02:54:50.283Z,12.30
2023-05-12T02:55:50.246Z,12.29
2023-05-12T02:56:50.227Z,12.26
2023-05-12T02:57:50.239Z,12.25
2023-05-12T02:58:50.188Z,12.23
2023-05-12T02:59:50.175Z,12.23
2023-05-12T03:00:54.289Z,12.22
2023-05-12T03:01:51.220Z,12.22
2023-05-12T03:02:50.339Z,12.25
2023-05-12T03:03:50.216Z,12.22
2023-05-12T03:04:50.112Z,12.22
2023-05-12T03:05:50.115Z,12.21
2023-05-12T03:06:50.093Z,12.21
2023-05-12T03:07:50.115Z,12.21
2023-05-12T03:08:50.058Z,12.26
2023-05-12T03:09:50.062Z,12.26
2023-05-12T03:10:50.039Z,12.30
2023-05-12T03:11:50.044Z,12.31
2023-05-12T03:12:50.002Z,12.34
2023-05-12T03:13:49.989Z,12.34
2023-05-12T03:14:49.985Z,12.34
2023-05-12T03:15:49.976Z,12.34
2023-05-12T03:16:50.015Z,12.34
2023-05-12T03:17:49.994Z,12.33
2023-05-12T03:18:49.948Z,12.30
2023-05-12T03:19:49.936Z,12.25
2023-05-12T03:20:49.937Z,12.19
2023-05-12T03:21:49.907Z,12.18
2023-05-12T03:22:49.873Z,12.15
2023-05-12T03:23:49.853Z,12.13
2023-05-12T03:24:49.862Z,12.12
2023-05-12T03:25:49.875Z,12.11
2023-05-12T03:26:49.867Z,12.08
2023-05-12T03:27:49.806Z,12.07
2023-05-12T03:28:49.800Z,12.04
2023-05-12T03:29:49.791Z,12.01
2023-05-12T03:30:49.774Z,11.98
2023-05-12T03:31:49.817Z,11.96
2023-05-12T03:32:49.846Z,11.93
2023-05-12T03:33:49.739Z,11.93
2023-05-12T03:34:49.746Z,11.90
2023-05-12T03:35:49.746Z,11.88
2023-05-12T03:36:49.681Z,11.85
2023-05-12T03:37:49.685Z,11.82
2023-05-12T03:38:49.665Z,11.81
2023-05-12T03:39:49.667Z,11.81
2023-05-12T03:40:49.646Z,11.79
2023-05-12T03:41:49.637Z,11.79
2023-05-12T03:42:49.600Z,11.75
2023-05-12T03:43:49.603Z,11.74
2023-05-12T03:44:49.593Z,11.74
2023-05-12T03:45:49.585Z,11.75
2023-05-12T03:46:49.684Z,11.74
2023-05-12T03:47:49.624Z,11.75
2023-05-12T03:48:49.548Z,11.72
2023-05-12T03:49:49.587Z,11.72
2023-05-12T03:50:49.504Z,11.70
2023-05-12T03:51:49.485Z,11.69
2023-05-12T03:52:49.477Z,11.70
2023-05-12T03:53:49.476Z,11.69
2023-05-12T03:54:49.462Z,11.67
2023-05-12T03:55:49.444Z,11.69
2023-05-12T03:56:49.416Z,11.69
2023-05-12T03:57:49.413Z,11.70
2023-05-12T03:58:49.411Z,11.67
2023-05-12T03:59:49.388Z,11.67
2023-05-12T04:00:49.370Z,11.67
2023-05-12T04:01:49.397Z,11.66
2023-05-12T04:02:49.439Z,11.69
2023-05-12T04:03:49.527Z,11.67
2023-05-12T04:04:49.308Z,11.69
2023-05-12T04:05:49.335Z,11.70
2023-05-12T04:06:49.300Z,11.72
2023-05-12T04:07:49.303Z,11.74
2023-05-12T04:08:49.282Z,11.74
2023-05-12T04:09:49.253Z,11.72
2023-05-12T04:10:49.224Z,11.72
2023-05-12T04:11:49.251Z,11.75
2023-05-12T04:12:49.234Z,11.77
2023-05-12T04:13:49.218Z,11.78
2023-05-12T04:14:49.215Z,11.78
2023-05-12T04:15:49.156Z,11.79
2023-05-12T04:16:49.265Z,11.79
2023-05-12T04:17:49.216Z,11.81
2023-05-12T04:18:49.180Z,11.82
2023-05-12T04:19:49.127Z,11.85
2023-05-12T04:20:49.126Z,11.88
2023-05-12T04:21:49.131Z,11.93
2023-05-12T04:22:49.112Z,11.94
2023-05-12T04:23:49.063Z,11.96
2023-05-12T04:24:49.057Z,11.96
2023-05-12T04:25:49.048Z,11.96
2023-05-12T04:26:49.041Z,11.97
2023-05-12T04:27:49.036Z,11.96
2023-05-12T04:28:48.999Z,11.97
2023-05-12T04:29:48.999Z,11.98
2023-05-12T04:30:48.964Z,12.00
2023-05-12T04:31:49.129Z,12.00
2023-05-12T04:32:49.013Z,12.01
2023-05-12T04:33:48.964Z,12.01
2023-05-12T04:34:48.947Z,12.03
2023-05-12T04:35:48.923Z,12.05
2023-05-12T04:36:48.915Z,12.05
2023-05-12T04:37:48.873Z,12.05
2023-05-12T04:38:48.891Z,12.07
2023-05-12T04:39:48.842Z,12.08
2023-05-12T04:40:48.836Z,12.12
2023-05-12T04:41:48.879Z,12.15
2023-05-12T04:42:48.841Z,12.15
2023-05-12T04:44:48.798Z,12.16
2023-05-12T04:45:48.827Z,12.18
2023-05-12T04:46:48.777Z,12.21
2023-05-12T04:47:48.826Z,12.23
2023-05-12T04:48:48.747Z,12.26
2023-05-12T04:49:48.732Z,12.29
2023-05-12T04:50:48.732Z,12.31
2023-05-12T04:51:48.716Z,12.36
2023-05-12T04:52:48.726Z,12.38
2023-05-12T04:53:48.669Z,12.44
2023-05-12T04:54:48.671Z,12.44
2023-05-12T04:55:48.678Z,12.46
2023-05-12T04:56:48.638Z,12.48
2023-05-12T04:57:48.628Z,12.52
2023-05-12T04:58:48.619Z,12.55
2023-05-12T04:59:48.597Z,12.55
2023-05-12T05:00:48.593Z,12.56
2023-05-12T05:01:48.602Z,12.59
2023-05-12T05:02:48.672Z,12.62
2023-05-12T05:03:48.659Z,12.63
2023-05-12T05:04:48.552Z,12.63
2023-05-12T05:05:48.532Z,12.62
2023-05-12T05:06:48.496Z,12.66
2023-05-12T05:07:48.526Z,12.67
2023-05-12T05:08:48.482Z,12.69
2023-05-12T05:09:48.476Z,12.70
2023-05-12T05:10:48.476Z,12.71
2023-05-12T05:11:48.430Z,12.73
2023-05-12T05:12:48.428Z,12.77
2023-05-12T05:13:48.462Z,12.80
2023-05-12T05:14:48.438Z,12.85
2023-05-12T05:15:48.402Z,12.88
2023-05-12T05:16:48.371Z,12.91
2023-05-12T05:17:48.435Z,12.95
2023-05-12T05:18:48.411Z,12.98
2023-05-12T05:19:55.937Z,13.03
2023-05-12T05:20:57.131Z,13.04
2023-05-12T05:21:49.299Z,13.07
2023-05-12T05:22:48.287Z,13.09
2023-05-12T05:23:48.302Z,13.12
2023-05-12T05:24:48.267Z,13.14
2023-05-12T05:25:48.248Z,13.16
2023-05-12T05:26:48.238Z,13.19
2023-05-12T05:27:48.230Z,13.22
2023-05-12T05:28:48.225Z,13.27
2023-05-12T05:29:48.208Z,13.29
2023-05-12T05:30:48.206Z,13.32
2023-05-12T05:31:48.389Z,13.38
2023-05-12T05:32:48.203Z,13.41
2023-05-12T05:33:48.190Z,13.46
2023-05-12T05:34:48.140Z,13.48
2023-05-12T05:35:48.139Z,13.50
2023-05-12T05:36:48.129Z,13.54
2023-05-12T05:37:48.136Z,13.57
2023-05-12T05:38:48.087Z,13.62
2023-05-12T05:39:48.085Z,13.62
2023-05-12T05:40:53.678Z,13.66
2023-05-12T05:41:49.061Z,13.69
2023-05-12T05:42:48.046Z,13.75
2023-05-12T05:43:48.020Z,13.79
2023-05-12T05:44:48.011Z,13.80
2023-05-12T05:45:48.002Z,13.84
2023-05-12T05:46:48.026Z,13.87
2023-05-12T05:47:48.002Z,13.91
2023-05-12T05:48:47.957Z,13.94
2023-05-12T05:49:47.945Z,13.99
2023-05-12T05:50:47.940Z,14.02
2023-05-12T05:51:47.912Z,14.05
2023-05-12T05:52:47.944Z,14.06
2023-05-12T05:53:47.896Z,14.09
2023-05-12T05:54:47.898Z,14.13
2023-05-12T05:55:47.850Z,14.16
2023-05-12T05:56:47.855Z,14.19
2023-05-12T05:57:47.819Z,14.24
2023-05-12T05:58:47.816Z,14.27
2023-05-12T05:59:47.798Z,14.30
2023-05-12T06:00:47.861Z,14.35
2023-05-12T06:01:47.793Z,14.38
2023-05-12T06:02:47.903Z,14.42
2023-05-12T06:03:47.909Z,14.44
2023-05-12T06:04:49.214Z,14.52
2023-05-12T06:05:47.729Z,14.53
2023-05-12T06:06:47.721Z,14.59
2023-05-12T06:07:47.688Z,14.63
2023-05-12T06:08:47.677Z,14.66
2023-05-12T06:09:47.671Z,14.69
2023-05-12T06:10:47.670Z,14.71
2023-05-12T06:11:47.639Z,14.74
2023-05-12T06:12:47.642Z,14.78
2023-05-12T06:13:47.615Z,14.80
2023-05-12T06:14:47.676Z,14.80
2023-05-12T06:15:47.604Z,14.86
2023-05-12T06:16:47.675Z,14.91
2023-05-12T06:17:47.557Z,14.91
2023-05-12T06:18:47.630Z,14.93
2023-05-12T06:19:47.533Z,14.95
2023-05-12T06:20:47.572Z,15.00
2023-05-12T06:21:47.507Z,15.04
2023-05-12T06:22:47.511Z,15.03
2023-05-12T06:23:47.485Z,15.04
2023-05-12T06:24:47.517Z,15.05
2023-05-12T06:25:47.456Z,15.11
2023-05-12T06:26:47.446Z,15.15
2023-05-12T06:27:47.452Z,15.18
2023-05-12T06:28:47.447Z,15.20
2023-05-12T06:29:47.416Z,15.27
2023-05-12T06:30:47.385Z,15.27
2023-05-12T06:31:47.425Z,15.28
2023-05-12T06:32:47.430Z,15.31
2023-05-12T06:33:47.372Z,15.35
2023-05-12T06:34:47.348Z,15.43
2023-05-12T06:35:47.421Z,15.49
2023-05-12T06:36:47.326Z,15.55
2023-05-12T06:37:47.305Z,15.64
2023-05-12T06:38:47.310Z,15.71
2023-05-12T06:39:47.274Z,15.77
2023-05-12T06:40:47.267Z,15.86
2023-05-12T06:41:47.240Z,15.95
2023-05-12T06:42:47.263Z,16.08
2023-05-12T06:43:47.237Z,16.17
2023-05-12T06:44:47.221Z,16.32
2023-05-12T06:45:47.196Z,16.44
2023-05-12T06:46:47.230Z,16.55
2023-05-12T06:47:47.291Z,16.69
2023-05-12T06:48:47.171Z,16.84
2023-05-12T06:49:47.151Z,16.98
2023-05-12T06:50:47.149Z,17.07
2023-05-12T06:51:47.113Z,17.21
2023-05-12T06:52:47.122Z,17.35
2023-05-12T06:53:47.102Z,17.47
2023-05-12T06:54:47.075Z,17.62
2023-05-12T06:55:47.077Z,17.76
2023-05-12T06:56:47.071Z,17.89
2023-05-12T06:57:47.046Z,18.10
2023-05-12T06:58:47.032Z,18.26
2023-05-12T06:59:47.057Z,18.49
2023-05-12T07:00:47.001Z,18.82
2023-05-12T07:01:47.120Z,18.99
2023-05-12T07:02:47.140Z,19.13
2023-05-12T07:03:47.023Z,19.28
2023-05-12T07:04:46.947Z,19.35
2023-05-12T07:05:46.968Z,19.39
2023-05-12T07:06:46.970Z,19.47
2023-05-12T07:07:46.913Z,19.61
2023-05-12T07:08:46.891Z,19.86
2023-05-12T07:09:46.879Z,20.15
2023-05-12T07:10:46.863Z,20.25
2023-05-12T07:11:46.868Z,20.34
2023-05-12T07:12:46.841Z,20.41
2023-05-12T07:13:46.813Z,20.56
2023-05-12T07:14:46.859Z,20.61
2023-05-12T07:15:46.841Z,20.60
2023-05-12T07:16:46.816Z,20.53
2023-05-12T07:17:46.785Z,20.57
2023-05-12T07:18:46.810Z,20.78
2023-05-12T07:19:48.701Z,20.98
2023-05-12T07:20:47.251Z,21.28
2023-05-12T07:21:48.797Z,21.64
2023-05-12T07:22:46.704Z,21.86
2023-05-12T07:23:47.020Z,21.81
2023-05-12T07:24:46.897Z,21.70
2023-05-12T07:25:46.826Z,21.70
2023-05-12T07:26:46.655Z,21.89
2023-05-12T07:27:46.640Z,22.02
2023-05-12T07:28:46.632Z,22.06
2023-05-12T07:29:46.608Z,21.99
2023-05-12T07:30:46.630Z,21.91
2023-05-12T07:31:46.674Z,21.93
2023-05-12T07:32:46.612Z,21.85
2023-05-12T07:33:46.566Z,21.99
2023-05-12T07:34:46.549Z,22.08
2023-05-12T07:35:46.547Z,22.17
2023-05-12T07:36:46.589Z,22.29
2023-05-12T07:37:46.521Z,22.57
2023-05-12T07:38:46.500Z,22.78
2023-05-12T07:39:46.491Z,23.11
2023-05-12T07:40:46.505Z,23.64
2023-05-12T07:41:46.475Z,24.15
2023-05-12T07:42:46.438Z,24.53
2023-05-12T07:43:46.439Z,24.70
2023-05-12T07:44:46.440Z,24.83
2023-05-12T07:45:46.403Z,25.05
2023-05-12T07:46:46.419Z,25.08
2023-05-12T07:47:46.395Z,25.29
2023-05-12T07:48:46.410Z,25.67
2023-05-12T07:49:46.385Z,25.83
2023-05-12T07:50:46.351Z,25.78
2023-05-12T07:51:46.341Z,25.61
2023-05-12T07:52:46.337Z,25.42
2023-05-12T07:53:46.319Z,25.19
2023-05-12T07:54:46.315Z,25.09
2023-05-12T07:55:46.294Z,25.20
2023-05-12T07:56:46.263Z,25.38
2023-05-12T07:57:46.275Z,25.56
2023-05-12T07:58:47.586Z,25.45
2023-05-12T07:59:46.228Z,25.53
2023-05-12T08:00:46.206Z,25.56
2023-05-12T08:01:46.284Z,25.83
2023-05-12T08:02:46.248Z,26.27
2023-05-12T08:03:46.370Z,26.57
2023-05-12T08:04:46.210Z,26.69
2023-05-12T08:05:46.146Z,26.91
2023-05-12T08:06:46.126Z,27.27
2023-05-12T08:07:49.448Z,27.49
2023-05-12T08:08:52.927Z,27.68
2023-05-12T08:09:46.093Z,27.72
2023-05-12T08:10:46.073Z,27.88
2023-05-12T08:11:48.089Z,28.17
2023-05-12T08:12:46.072Z,28.25
2023-05-12T08:13:46.054Z,28.15
2023-05-12T08:14:46.025Z,27.90
2023-05-12T08:15:46.075Z,27.72
2023-05-12T08:16:46.071Z,27.78
2023-05-12T08:17:46.049Z,27.83
2023-05-12T08:18:46.042Z,27.91
2023-05-12T08:19:45.988Z,28.08
2023-05-12T08:20:45.978Z,28.25
2023-05-12T08:21:45.955Z,28.02
2023-05-12T08:22:45.974Z,27.84
2023-05-12T08:23:45.919Z,27.63
2023-05-12T08:24:45.931Z,27.65
2023-05-12T08:25:45.886Z,27.81
2023-05-12T08:26:45.894Z,27.81
2023-05-12T08:27:45.885Z,27.93
2023-05-12T08:28:45.854Z,28.08
2023-05-12T08:29:45.835Z,28.17
2023-05-12T08:30:45.872Z,28.28
2023-05-12T08:31:46.111Z,28.27
2023-05-12T08:32:45.835Z,28.05
2023-05-12T08:33:46.384Z,27.86
2023-05-12T08:34:45.766Z,27.69
2023-05-12T08:35:45.781Z,27.65
2023-05-12T08:36:45.746Z,27.63
2023-05-12T08:37:45.758Z,27.77
2023-05-12T08:38:45.724Z,27.81
2023-05-12T08:39:45.710Z,27.83
2023-05-12T08:40:45.858Z,27.83
2023-05-12T08:41:45.713Z,27.74
2023-05-12T08:42:45.672Z,27.68
2023-05-12T08:43:45.665Z,27.62
2023-05-12T08:44:45.649Z,27.52
2023-05-12T08:45:45.670Z,27.62
2023-05-12T08:46:45.813Z,27.68
2023-05-12T08:47:45.738Z,27.63
2023-05-12T08:48:45.579Z,27.68
2023-05-12T08:49:45.605Z,27.63
2023-05-12T08:50:45.577Z,27.52
2023-05-12T08:51:52.020Z,27.34
2023-05-12T08:52:46.569Z,27.28
2023-05-12T08:53:45.549Z,27.15
2023-05-12T08:54:55.035Z,27.06
2023-05-12T08:55:58.383Z,27.03
2023-05-12T08:57:45.612Z,27.08
2023-05-12T08:58:45.453Z,27.11
2023-05-12T08:59:45.464Z,27.21
2023-05-12T09:00:45.472Z,27.25
2023-05-12T09:01:45.481Z,27.23
2023-05-12T09:02:53.285Z,27.23
2023-05-12T09:03:46.416Z,27.30
2023-05-12T09:04:45.480Z,27.23
2023-05-12T09:05:45.390Z,27.16
2023-05-12T09:06:49.321Z,27.18
2023-05-12T09:07:45.358Z,27.24
2023-05-12T09:08:45.348Z,27.30
2023-05-12T09:09:45.363Z,27.34
2023-05-12T09:10:45.301Z,27.38
2023-05-12T09:11:45.325Z,27.46
2023-05-12T09:12:45.295Z,27.52
2023-05-12T09:13:45.298Z,27.63
2023-05-12T09:14:45.258Z,27.76
2023-05-12T09:15:45.267Z,27.78
2023-05-12T09:16:45.368Z,27.74
2023-05-12T09:17:45.270Z,27.68
2023-05-12T09:18:45.251Z,27.59
2023-05-12T09:19:45.252Z,27.53
2023-05-12T09:20:45.186Z,27.53
2023-05-12T09:21:45.178Z,27.53
2023-05-12T09:22:45.157Z,27.52
2023-05-12T09:23:45.185Z,27.28
2023-05-12T09:24:45.132Z,27.25
2023-05-12T09:25:45.122Z,27.40
2023-05-12T09:26:45.197Z,27.50
2023-05-12T09:27:45.118Z,27.61
2023-05-12T09:28:45.109Z,27.69
2023-05-12T09:29:51.780Z,27.58
2023-05-12T09:30:46.053Z,27.46
2023-05-12T09:31:45.082Z,27.48
2023-05-12T09:32:45.179Z,27.48
2023-05-12T09:33:45.036Z,27.39
2023-05-12T09:34:45.010Z,27.25
2023-05-12T09:35:44.999Z,27.09
2023-05-12T09:36:44.972Z,27.08
2023-05-12T09:37:45.000Z,27.09
2023-05-12T09:38:44.982Z,26.97
2023-05-12T09:39:44.962Z,26.88
2023-05-12T09:40:44.912Z,26.87
2023-05-12T09:41:44.961Z,26.88
2023-05-12T09:42:45.062Z,26.97
2023-05-12T09:43:44.901Z,26.98
2023-05-12T09:44:44.901Z,26.96
2023-05-12T09:45:44.955Z,26.97
2023-05-12T09:46:44.876Z,26.98
2023-05-12T09:47:44.987Z,27.05
2023-05-12T09:48:44.821Z,27.09
2023-05-12T09:49:44.854Z,27.15
2023-05-12T09:50:47.908Z,27.05
2023-05-12T09:51:44.845Z,26.96
2023-05-12T09:52:45.002Z,26.91
2023-05-12T09:53:44.756Z,26.84
2023-05-12T09:54:44.764Z,26.86
2023-05-12T09:55:44.744Z,26.84
2023-05-12T09:56:44.762Z,26.86
2023-05-12T09:57:44.736Z,26.73
2023-05-12T09:58:44.815Z,26.72
2023-05-12T09:59:44.687Z,26.68
2023-05-12T10:01:06.542Z,26.73
2023-05-12T10:01:45.754Z,26.83
2023-05-12T10:02:44.652Z,26.86
2023-05-12T10:03:44.619Z,26.91
2023-05-12T10:04:44.670Z,26.97
2023-05-12T10:05:44.611Z,27.06
2023-05-12T10:06:44.608Z,27.12
2023-05-12T10:07:44.697Z,27.16
2023-05-12T10:08:44.592Z,27.09
2023-05-12T10:09:44.579Z,27.01
2023-05-12T10:10:44.548Z,26.97
2023-05-12T10:11:44.560Z,27.06
2023-05-12T10:12:44.552Z,27.09
2023-05-12T10:13:44.496Z,27.11
2023-05-12T10:14:44.524Z,27.02
2023-05-12T10:15:44.536Z,26.88
2023-05-12T10:16:44.528Z,26.68
2023-05-12T10:17:44.519Z,26.61
2023-05-12T10:18:44.513Z,26.66
2023-05-12T10:19:44.460Z,26.71
2023-05-12T10:20:44.425Z,26.78
2023-05-12T10:21:44.444Z,26.87
2023-05-12T10:22:44.376Z,26.93
2023-05-12T10:23:44.393Z,26.98
2023-05-12T10:24:44.383Z,26.96
2023-05-12T10:25:44.380Z,26.90
2023-05-12T10:26:44.373Z,26.84
2023-05-12T10:27:44.343Z,26.75
2023-05-12T10:28:44.312Z,26.79
2023-05-12T10:29:44.369Z,26.90
2023-05-12T10:30:44.284Z,26.94
2023-05-12T10:31:44.346Z,26.91
2023-05-12T10:32:44.316Z,26.91
2023-05-12T10:33:44.249Z,26.83
2023-05-12T10:34:44.253Z,26.73
2023-05-12T10:35:44.726Z,26.73
2023-05-12T10:36:44.218Z,26.78
2023-05-12T10:37:44.224Z,26.72
2023-05-12T10:38:44.203Z,26.69
2023-05-12T10:39:44.197Z,26.72
2023-05-12T10:40:44.148Z,26.78
2023-05-12T10:41:44.145Z,26.88
2023-05-12T10:42:44.149Z,26.91
2023-05-12T10:43:44.121Z,27.02
2023-05-12T10:44:44.140Z,27.20
2023-05-12T10:45:44.101Z,27.33
2023-05-12T10:46:44.149Z,27.42
2023-05-12T10:47:44.129Z,27.48
2023-05-12T10:48:44.325Z,27.34
2023-05-12T10:49:44.110Z,27.05
2023-05-12T10:50:44.018Z,26.69
2023-05-12T10:51:44.036Z,26.44
2023-05-12T10:52:44.018Z,26.23
2023-05-12T10:53:50.048Z,25.93
2023-05-12T10:54:44.971Z,25.85
2023-05-12T10:55:44.225Z,25.93
2023-05-12T10:56:44.396Z,26.03
2023-05-12T10:57:44.412Z,26.11
2023-05-12T10:58:44.176Z,26.16
2023-05-12T10:59:44.260Z,26.27
2023-05-12T11:00:44.896Z,26.44
2023-05-12T11:01:44.394Z,26.51
2023-05-12T11:02:44.584Z,26.47
2023-05-12T11:03:45.012Z,26.38
2023-05-12T11:04:44.880Z,26.24
2023-05-12T11:05:44.270Z,26.23
2023-05-12T11:06:44.962Z,26.23
2023-05-12T11:07:44.137Z,26.17
2023-05-12T11:08:44.296Z,25.98
2023-05-12T11:09:56.745Z,25.76
2023-05-12T11:10:44.804Z,25.60
2023-05-12T11:11:43.800Z,25.51
2023-05-12T11:12:43.780Z,25.46
2023-05-12T11:13:43.807Z,25.42
2023-05-12T11:14:43.783Z,25.39
2023-05-12T11:15:43.843Z,25.30
2023-05-12T11:16:47.160Z,25.31
2023-05-12T11:17:44.841Z,25.38
2023-05-12T11:18:43.723Z,25.41
2023-05-12T11:19:43.673Z,25.46
2023-05-12T11:20:43.752Z,25.44
2023-05-12T11:21:44.123Z,25.41
2023-05-12T11:22:43.639Z,25.38
2023-05-12T11:23:43.636Z,25.34
2023-05-12T11:24:43.740Z,25.23
2023-05-12T11:25:44.372Z,25.17
2023-05-12T11:26:43.599Z,25.16
2023-05-12T11:27:43.553Z,25.05
2023-05-12T11:28:44.055Z,25.01
2023-05-12T11:29:43.535Z,24.90
2023-05-12T11:30:43.498Z,24.79
2023-05-12T11:31:44.998Z,24.77
2023-05-12T11:32:43.495Z,24.77
2023-05-12T11:33:43.503Z,24.75
2023-05-12T11:34:43.460Z,24.77
2023-05-12T11:35:43.460Z,24.71
2023-05-12T11:36:43.488Z,24.67
2023-05-12T11:37:43.448Z,24.67
2023-05-12T11:38:43.434Z,24.77
2023-05-12T11:39:43.403Z,24.99
2023-05-12T11:40:43.388Z,25.05
2023-05-12T11:41:43.426Z,25.01
2023-05-12T11:42:43.365Z,24.97
2023-05-12T11:43:43.383Z,24.90
2023-05-12T11:44:43.336Z,24.90
2023-05-12T11:45:43.353Z,24.83
2023-05-12T11:46:43.328Z,24.74
2023-05-12T11:47:43.320Z,24.68
2023-05-12T11:48:43.321Z,24.66
2023-05-12T11:49:43.268Z,24.59
2023-05-12T11:50:43.256Z,24.51
2023-05-12T11:51:43.302Z,24.45
2023-05-12T11:52:43.217Z,24.42
2023-05-12T11:53:43.308Z,24.37
2023-05-12T11:54:43.215Z,24.41
2023-05-12T11:55:43.205Z,24.59
2023-05-12T11:56:43.228Z,24.70
2023-05-12T11:57:43.206Z,24.71
2023-05-12T11:58:43.156Z,24.70
2023-05-12T11:59:43.185Z,24.74
2023-05-12T12:00:43.154Z,24.70
2023-05-12T12:01:43.126Z,24.80
2023-05-12T12:02:43.226Z,24.84
2023-05-12T12:03:43.161Z,24.89
2023-05-12T12:04:43.275Z,24.90
2023-05-12T12:05:43.114Z,24.87
2023-05-12T12:06:43.058Z,24.84
2023-05-12T12:07:43.069Z,24.82
2023-05-12T12:08:43.038Z,24.79
2023-05-12T12:09:43.056Z,24.79
2023-05-12T12:10:43.025Z,24.79
2023-05-12T12:11:43.002Z,24.70
2023-05-12T12:12:42.982Z,24.53
2023-05-12T12:13:43.044Z,24.46
2023-05-12T12:14:42.978Z,24.42
2023-05-12T12:15:42.971Z,24.52
2023-05-12T12:16:42.942Z,24.66
2023-05-12T12:17:42.948Z,24.71
2023-05-12T12:18:42.959Z,24.71
2023-05-12T12:19:42.966Z,24.71
2023-05-12T12:20:42.915Z,24.84
2023-05-12T12:21:42.869Z,24.92
2023-05-12T12:22:42.868Z,24.94
2023-05-12T12:23:50.927Z,24.94
2023-05-12T12:24:43.829Z,25.05
2023-05-12T12:25:42.800Z,25.14
2023-05-12T12:26:42.840Z,25.19
2023-05-12T12:27:42.809Z,25.27
2023-05-12T12:28:42.795Z,25.26
2023-05-12T12:29:42.781Z,25.26
2023-05-12T12:30:42.768Z,25.35
2023-05-12T12:31:42.800Z,25.31
2023-05-12T12:32:42.842Z,25.42
2023-05-12T12:33:42.792Z,25.54
2023-05-12T12:34:42.696Z,25.60
2023-05-12T12:35:42.712Z,25.61
2023-05-12T12:36:42.673Z,25.56
2023-05-12T12:37:42.657Z,25.48
2023-05-12T12:38:42.695Z,25.36
2023-05-12T12:39:42.733Z,25.26
2023-05-12T12:40:42.640Z,25.14
2023-05-12T12:41:42.692Z,25.07
2023-05-12T12:42:42.603Z,25.02
2023-05-12T12:43:42.659Z,24.98
2023-05-12T12:44:42.593Z,24.87
2023-05-12T12:45:42.703Z,24.70
2023-05-12T12:46:42.564Z,24.59
2023-05-12T12:47:42.572Z,24.48
2023-05-12T12:48:42.512Z,24.44
2023-05-12T12:49:42.512Z,24.41
2023-05-12T12:50:42.506Z,24.39
2023-05-12T12:51:46.325Z,24.33
2023-05-12T12:52:42.466Z,24.31
2023-05-12T12:53:42.453Z,24.29
2023-05-12T12:54:42.808Z,24.27